Tiempo atmosférico en la estación meteorológica de Alconchel, Badajoz (170 m.)



Fecha
DESCASC
Temp. máxima en grados centígrados (hora)
DESCASC
Temp. mínima en grados centígrados (hora)
DESCASC
Temp. media en grados centígrados
DESCASC
Racha de viento máxima en m/sg (hora)
DESCASC
Velocidad máxima media en intervalos de 10 minutos(hora)
DESCASC
Precipitaciones diarias en mm
DESCASC
Precipitaciones de 00:00 a 06:00 en mm
DESCASC
Precipitaciones de 06:00 a 12:00 en mm
DESCASC
Precipitaciones de 12:00 a 18:00 en mm
DESCASC
Precipitaciones de 18:00 a 24:00 en mm
DESCASC
23-05-2018 26.8 (17:00) 11.8 (08:00) 19.3 6.39 (19:50) 4.72 (18:50) 0 0 0 0 0
22-05-2018 24.4 (17:40) 12.2 (04:50) 18.3 6.39 (16:10) 4.44 (17:00) 0 0 0 0 0
21-05-2018 24 (19:30) 14.3 (08:00) 19.2 6.39 (23:30) 3.89 (14:10) 0 0 0 0 0
20-05-2018 20.9 (16:40) 12.7 (00:00) 16.8 10 (13:30) 6.39 (13:30) 4.8 0 4.4 0 0.4
19-05-2018 26.3 (16:40) 13.3 (00:00) 19.8 10.83 (19:20) 6.39 (19:40) 4 0 0 2.6 1.4
18-05-2018 26.5 (17:10) 14 (00:00) 20.3 11.39 (18:10) 7.5 (18:10) 1.8 0 0 0 1.8
17-05-2018 29.6 (19:10) 14.5 (00:00) 22.1 10 (23:00) 6.39 (23:10) 0 0 0 0 0
16-05-2018 28.7 (16:40) 11.3 (00:00) 20 10.83 (16:00) 5.83 (16:00) 0 0 0 0 0
15-05-2018 26.4 (18:00) 11.1 (00:00) 18.8 9.17 (14:10) 5.28 (13:00) 0 0 0 0 0
14-05-2018 24.2 (17:30) 8 (00:00) 16.1 10.83 (17:40) 7.22 (18:10) 0 0 0 0 0
13-05-2018 20.3 (17:50) 5.6 (00:00) 12.9 9.44 (14:30) 5.28 (23:10) 0 0 0 0 0
12-05-2018 19.4 (16:40) 10.8 (00:00) 15.1 13.33 (12:30) 8.61 (12:40) 0 0 0 0 0
11-05-2018 23.4 (17:50) 11.3 (07:50) 17.3 8.61 (20:50) 5.28 (20:20) 0 0 0 0 0
10-05-2018 24.5 (19:50) 9.6 (00:00) 17.1 6.11 (02:40) 3.61 (16:20) 0 0 0 0 0
09-05-2018 19.5 (17:20) 12 (00:00) 15.8 8.33 (20:50) 5.83 (20:50) 0 0 0 0 0
08-05-2018 24.9 (17:30) 15 (00:00) 19.9 8.61 (20:40) 5.28 (19:20) 1.6 0 1.6 0 0
07-05-2018 25 (15:50) 13.3 (00:00) 19.2 9.17 (17:00) 6.67 (17:00) 0.2 0 0 0 0.2
06-05-2018 25.6 (15:20) 11.8 (00:00) 18.7 9.72 (20:10) 5.56 (16:00) 7.2 0 0 7 0.2
05-05-2018 25.8 (20:20) 9.3 (00:00) 17.5 4.17 (18:10) 2.78 (14:20) 0 0 0 0 0
04-05-2018 21.7 (17:10) 9.9 (00:00) 15.8 11.39 (09:00) 7.5 (08:10) 0 0 0 0 0
03-05-2018 22 (18:30) 8.2 (00:00) 15.1 9.44 (23:50) 5.56 (23:50) 0 0 0 0 0
02-05-2018 17.4 (15:20) 5.6 (00:00) 11.5 7.78 (19:30) 5.56 (19:30) 0 0 0 0 0
01-05-2018 17.7 (18:40) 6.2 (07:10) 12 8.89 (17:30) 5.28 (17:30) 0.2 0 0 0.2 0
30-04-2018 17.5 (18:20) 7.6 (00:00) 12.5 8.33 (00:20) 5 (00:10) 0.6 0 0.6 0 0
29-04-2018 15.5 (18:30) 8.1 (00:00) 11.8 14.44 (16:50) 9.17 (16:50) 1.2 0 0 1.2 0
28-04-2018 16.9 (17:00) 7.4 (00:00) 12.1 13.06 (20:40) 8.33 (20:50) 1.2 0 0 0 1.2

Gráficas

Temp. máximas Temp. mínimas Temp. medias Precipitaciones Rachas de viento máximas Velocidades máximas media en intervalos de 10 minutos

Datos horarios

Fecha y hora oficial Temperatura (ºC) Velocidad del viento (km/h) Dirección del viento Racha (km/h) Dirección de racha Precipitación (mm) Presión (hPa) Tendencia (hPa) Humedad (%)
2018-05-27 23:00:00 -- -- -- -- -- -- -- -- --
2018-05-27 22:00:00 17.4 7 Noroeste 16 Noroeste 0 -- -- 93
2018-05-27 21:00:00 17.9 5 Oeste 13 Oeste 0.2 -- -- 91
2018-05-27 20:00:00 16.8 7 Norte 20 Noroeste 1.8 -- -- 93
2018-05-27 19:00:00 17.1 15 Noroeste 29 Oeste 0.4 -- -- 88
2018-05-27 18:00:00 18.3 10 Oeste 22 Oeste 0.2 -- -- 86
2018-05-27 17:00:00 18.8 12 Oeste 22 Oeste 0.2 -- -- 85
2018-05-27 16:00:00 20.2 9 Oeste 18 Noroeste 0 -- -- 74
2018-05-27 15:00:00 20.2 10 Noroeste 26 Oeste 0 -- -- 71
2018-05-27 14:00:00 21.8 9 Sudoeste 14 Sudoeste 0 -- -- 64
2018-05-27 13:00:00 20.7 7 Sudoeste 16 Sudoeste 0 -- -- 71
2018-05-27 12:00:00 20.4 7 Oeste 14 Oeste 0 -- -- 76
2018-05-27 11:00:00 18.8 12 Oeste 16 Oeste 0 -- -- 82
2018-05-27 10:00:00 17.2 6 Sur 10 Sur 0 -- -- 89
2018-05-27 09:00:00 15.4 7 Sur 10 Sur 0 -- -- 93
2018-05-27 08:00:00 14.2 6 Sudeste 12 Sudeste 0 -- -- 94
2018-05-27 07:00:00 14 8 Sudeste 10 Sudeste 0 -- -- 93
2018-05-27 06:00:00 14.9 0 Calma 5 Sudeste 0 -- -- 90
2018-05-27 05:00:00 14.8 3 Este 8 Sudeste 0 -- -- 91
2018-05-27 04:00:00 15.2 4 Sudeste 8 Sudeste 0 -- -- 89
2018-05-27 03:00:00 15.8 7 Este 13 Nordeste 0 -- -- 87
2018-05-27 02:00:00 16.4 9 Nordeste 14 Norte 0 -- -- 88
2018-05-27 01:00:00 17.2 9 Norte 13 Nordeste 0 -- -- 83
2018-05-27 00:00:00 19.4 0 Calma 13 Sudoeste 0 -- -- 71
2018-05-26 23:00:00 20.4 5 Oeste 17 Oeste 0 -- -- 68
2018-05-26 22:00:00 20.9 9 Oeste 22 Sudoeste 0 -- -- 65
2018-05-26 21:00:00 22.1 9 Sudoeste 14 Sudoeste 0 -- -- 55
2018-05-26 20:00:00 23 6 Oeste 10 Oeste 0 -- -- 50
2018-05-26 19:00:00 24 6 Sur 11 Sur 0 -- -- 47
2018-05-26 18:00:00 23.4 6 Sudoeste 13 Sudoeste 0 -- -- 48
2018-05-26 17:00:00 24.4 9 Noroeste 16 Noroeste 0 -- -- 45
2018-05-26 16:00:00 23.9 8 Oeste 14 Noroeste 0 -- -- 48
2018-05-26 15:00:00 22.5 11 Sudoeste 18 Sudoeste 0 -- -- 56
2018-05-26 14:00:00 22 8 Sudoeste 19 Sudoeste 0 -- -- 56
2018-05-26 13:00:00 20.6 9 Oeste 16 Oeste 0 -- -- 64
2018-05-26 12:00:00 19.6 6 Oeste 15 Sudoeste 0 -- -- 70
2018-05-26 11:00:00 18.5 7 Sudoeste 15 Oeste 0 -- -- 74
2018-05-26 10:00:00 16.9 8 Sur 15 Sur 0 -- -- 81
2018-05-26 09:00:00 14.8 12 Sur 16 Sur 0 -- -- 88
2018-05-26 08:00:00 14.1 4 Sudeste 8 Sudeste 0 -- -- 92
2018-05-26 07:00:00 14 4 Sudeste 15 Sudeste 0 -- -- 93
2018-05-26 06:00:00 14.2 10 Sudeste 14 Sudeste 0 -- -- 92
2018-05-26 05:00:00 14.3 7 Sur 11 Sur 0 -- -- 94
2018-05-26 04:00:00 14.2 6 Sur 14 Sur 0 -- -- 92
2018-05-26 03:00:00 14.7 7 Sur 13 Sur 0 -- -- 92
2018-05-26 02:00:00 14.6 0 Calma 5 Sudeste 0 -- -- 89
2018-05-26 01:00:00 14.9 5 Sudeste 8 Sudeste 0.2 -- -- 89
2018-05-26 00:00:00 15.6 4 Oeste 18 Noroeste 0 -- -- 85
2018-05-25 23:00:00 16.8 10 Oeste 22 Oeste 0 -- -- 78
2018-05-25 22:00:00 18.1 14 Sur 19 Sur 0 -- -- 72
2018-05-25 21:00:00 18.5 5 Este 9 Este 0 -- -- 68
2018-05-25 20:00:00 20 0 Calma 18 Sur 0 -- -- 60
2018-05-25 19:00:00 20.1 10 Sudeste 22 Este 0 -- -- 59
2018-05-25 18:00:00 19.7 9 Sur 27 Este 0 -- -- 65
2018-05-25 17:00:00 16.6 17 Sudeste 32 Sudeste 0 -- -- 72
2018-05-25 16:00:00 21.8 13 Sudoeste 23 Sudoeste 0 -- -- 52
2018-05-25 15:00:00 20.9 13 Oeste 21 Oeste 0 -- -- 57
2018-05-25 14:00:00 19.8 13 Sudoeste 18 Oeste 0 -- -- 66
2018-05-25 13:00:00 18.9 9 Sudoeste 16 Sudoeste 0 -- -- 68
2018-05-25 12:00:00 17.5 10 Sudoeste 16 Sudoeste 0 -- -- 76
2018-05-25 11:00:00 16.5 8 Sudoeste 14 Sudoeste 0 -- -- 81
2018-05-25 10:00:00 15.3 3 Sudeste 10 Sur 0 -- -- 88
2018-05-25 09:00:00 13.7 4 Sudeste 11 Este 0 -- -- 96
2018-05-25 08:00:00 12.1 9 Este 12 Este 0 -- -- 97
2018-05-25 07:00:00 11.7 7 Este 11 Este 0 -- -- 97
2018-05-25 06:00:00 12.3 4 Sudeste 6 Sudeste 0.2 -- -- 97
2018-05-25 05:00:00 12.1 3 Este 11 Este 0 -- -- 96
2018-05-25 04:00:00 12.8 6 Sudeste 10 Sudeste 0 -- -- 96
2018-05-25 03:00:00 13.2 5 Sur 13 Sur 0 -- -- 94
2018-05-25 02:00:00 13.7 7 Sur 16 Sur 0 -- -- 95
2018-05-25 01:00:00 13.7 13 Sur 17 Sur 0 -- -- 95
2018-05-25 00:00:00 13.7 4 Sudoeste 9 Oeste 1 -- -- 92
2018-05-24 23:00:00 13.6 4 Sudoeste 12 Noroeste 0.6 -- -- 92
2018-05-24 22:00:00 14 8 Noroeste 32 Oeste 0 -- -- 89
2018-05-24 21:00:00 16.1 24 Oeste 43 Oeste 0 -- -- 77
2018-05-24 20:00:00 17.8 7 Sudoeste 16 Sur 0 -- -- 79
2018-05-24 19:00:00 18.3 9 Sur 15 Sur 0 -- -- 80
2018-05-24 18:00:00 16.4 3 Sudeste 21 Sur 0.4 -- -- 94
2018-05-24 17:00:00 15.5 3 Oeste 8 Sur 1 -- -- 94
2018-05-24 16:00:00 15.5 6 Sur 13 Sur 0.2 -- -- 92
2018-05-24 15:00:00 15.8 5 Oeste 18 Sudoeste 0 -- -- 94
2018-05-24 14:00:00 15.9 11 Sudoeste 25 Sudoeste 2.8 -- -- 95
2018-05-24 13:00:00 16.7 15 Sudoeste 23 Sudoeste 0 -- -- 93
2018-05-24 12:00:00 16.5 7 Este 12 Este 0 -- -- 95
2018-05-24 11:00:00 16.2 6 Este 12 Este 0.6 -- -- 96
2018-05-24 10:00:00 15.9 4 Noroeste 15 Oeste 0.4 -- -- 95
2018-05-24 09:00:00 15.6 3 Oeste 22 Sudeste 0.4 -- -- 93
2018-05-24 08:00:00 14.7 10 Sudeste 17 Este 0.6 -- -- 95
2018-05-24 07:00:00 14.2 6 Este 9 Este 0 -- -- 94
2018-05-24 06:00:00 14.4 6 Este 8 Sudeste 0 -- -- 93
2018-05-24 05:00:00 14.9 6 Sudeste 7 Sudeste 0 -- -- 91
2018-05-24 04:00:00 15.5 4 Este 8 Sudeste 0 -- -- 89
2018-05-24 03:00:00 16.3 6 Sudeste 7 Sudeste 0 -- -- 87
2018-05-24 02:00:00 17.1 0 Calma 7 Noroeste 0 -- -- 83
2018-05-24 01:00:00 17.4 4 Noroeste 13 Noroeste 0 -- -- 82
2018-05-24 00:00:00 17.8 7 Noroeste 15 Noroeste 0 -- -- 80
2018-05-23 23:00:00 20.2 3 Sur 7 Sur 0 -- -- 61
2018-05-23 22:00:00 21.1 5 Sur 14 Sudoeste 0 -- -- 57
2018-05-23 21:00:00 22.1 10 Sudoeste 19 Sudoeste 0 -- -- 55
2018-05-23 20:00:00 23.3 13 Sudoeste 23 Sudoeste 0 -- -- 51
2018-05-23 19:00:00 23.9 14 Sudoeste 22 Sudoeste 0 -- -- 52
2018-05-23 18:00:00 24 12 Oeste 22 Sudoeste 0 -- -- 54
2018-05-23 17:00:00 26.8 10 Oeste 19 Oeste 0 -- -- 41
2018-05-23 16:00:00 26.3 8 Sudoeste 22 Sudoeste 0 -- -- 41
2018-05-23 15:00:00 26.4 6 Sudeste 21 Sur 0 -- -- 39
2018-05-23 14:00:00 25.4 5 Sudoeste 15 Sudeste 0 -- -- 47
2018-05-23 13:00:00 23.4 8 Oeste 12 Oeste 0 -- -- 64
2018-05-23 12:00:00 20.8 5 Noroeste 11 Noroeste 0 -- -- 72
2018-05-23 11:00:00 19.1 4 Noroeste 10 Norte 0 -- -- 78
2018-05-23 10:00:00 16.7 6 Norte 9 Norte 0 -- -- 87
2018-05-23 09:00:00 13.4 0 Calma 10 Este 0 -- -- 98
2018-05-23 08:00:00 11.8 5 Este 8 Este 0 -- -- 95
2018-05-23 07:00:00 12.2 3 Norte 5 Norte 0 -- -- 96
2018-05-23 06:00:00 12.6 3 Sudeste 4 Sudeste 0 -- -- 93
2018-05-23 05:00:00 13 2 Sudeste 6 Sudeste 0 -- -- 94
2018-05-23 04:00:00 13.2 5 Este 6 Este 0 -- -- 92
2018-05-23 03:00:00 14.5 0 Calma 2 Nordeste 0 -- -- 87
2018-05-23 02:00:00 15 0 Calma 13 Noroeste 0 -- -- 87
2018-05-23 01:00:00 15.8 10 Oeste 16 Oeste 0 -- -- 84
2018-05-23 00:00:00 16.7 8 Noroeste 20 Noroeste 0 -- -- 81
2018-05-22 23:00:00 20.1 11 Sur 16 Sur 0 -- -- 52
2018-05-22 22:00:00 21.1 5 Sur 12 Oeste 0 -- -- 54
2018-05-22 21:00:00 22.8 10 Sudoeste 20 Oeste 0 -- -- 52
2018-05-22 20:00:00 24.1 14 Oeste 21 Oeste 0 -- -- 45
2018-05-22 19:00:00 24.2 12 Oeste 23 Oeste 0 -- -- 47
2018-05-22 18:00:00 23.5 12 Oeste 23 Sudoeste 0 -- -- 52
2018-05-22 17:00:00 23.5 16 Sudoeste 23 Oeste 0 -- -- 52
2018-05-22 16:00:00 23.1 14 Oeste 22 Oeste 0 -- -- 54
2018-05-22 15:00:00 22.5 12 Oeste 21 Sudoeste 0 -- -- 58
2018-05-22 14:00:00 21.2 9 Sudoeste 17 Oeste 0 -- -- 60
2018-05-22 13:00:00 20.1 12 Sur 21 Sur 0 -- -- 63
2018-05-22 12:00:00 17.7 4 Sudoeste 13 Sudoeste 0 -- -- 79
2018-05-22 11:00:00 16.1 5 Sur 13 Este 0 -- -- 87
2018-05-22 10:00:00 14.4 9 Sudeste 13 Sudeste 0 -- -- 97
2018-05-22 09:00:00 13.1 4 Este 8 Este 0 -- -- 98
2018-05-22 08:00:00 12.4 0 Calma 9 Sudeste 0 -- -- 98
2018-05-22 07:00:00 12.4 4 Sur 8 Sudoeste 0 -- -- 98
2018-05-22 06:00:00 12.5 0 Calma 4 Sudeste 0 -- -- 97
2018-05-22 05:00:00 12.3 0 Calma 10 Oeste 0 -- -- 97
2018-05-22 04:00:00 12.5 4 Oeste 15 Oeste 0 -- -- 96
2018-05-22 03:00:00 12.7 11 Oeste 17 Oeste 0 -- -- 93
2018-05-22 02:00:00 13.7 8 Sudoeste 13 Sudoeste 0 -- -- 91
2018-05-22 01:00:00 14.5 6 Oeste 17 Oeste 0 -- -- 88
2018-05-22 00:00:00 15.8 5 Noroeste 23 Noroeste 0 -- -- 84
2018-05-21 23:00:00 17.8 13 Noroeste 23 Oeste 0 -- -- 78
2018-05-21 22:00:00 20.1 11 Oeste 18 Noroeste 0 -- -- 67
2018-05-21 21:00:00 22.3 8 Oeste 13 Oeste 0 -- -- 58
2018-05-21 20:00:00 23.7 8 Oeste 14 Noroeste 0 -- -- 53
2018-05-21 19:00:00 23.7 10 Oeste 20 Noroeste 0 -- -- 44
2018-05-21 18:00:00 22.7 12 Sudoeste 22 Sudoeste 0 -- -- 58
2018-05-21 17:00:00 21.8 13 Sudoeste 17 Sudoeste 0 -- -- 65
2018-05-21 16:00:00 20.6 10 Sudoeste 17 Sur 0 -- -- 69
2018-05-21 15:00:00 19.1 8 Sudoeste 19 Sudoeste 0 -- -- 72
2018-05-21 14:00:00 17.1 11 Sudoeste 17 Oeste 0 -- -- 85
2018-05-21 13:00:00 15.9 4 Sudoeste 12 Sudoeste 0 -- -- 85
2018-05-21 12:00:00 15.1 3 Oeste 12 Oeste 0 -- -- 88
2018-05-21 11:00:00 14.6 7 Oeste 14 Oeste 0 -- -- 92
2018-05-21 10:00:00 14.6 8 Oeste 15 Oeste 0 -- -- 92
2018-05-21 09:00:00 14.6 6 Noroeste 12 Noroeste 0 -- -- 94
2018-05-21 08:00:00 14.3 3 Norte 5 Norte 0 -- -- 93
2018-05-21 07:00:00 14.8 2 Oeste 4 Oeste 0 -- -- 90
2018-05-21 06:00:00 15 0 Calma 7 Noroeste 0 -- -- 90
2018-05-21 05:00:00 15.3 4 Noroeste 8 Norte 0 -- -- 90
2018-05-21 04:00:00 15.7 6 Norte 16 Oeste 0 -- -- 89
2018-05-21 03:00:00 15.8 6 Oeste 16 Oeste 0 -- -- 85
2018-05-21 02:00:00 15.3 8 Sur 15 Sudeste 0 -- -- 89
2018-05-21 01:00:00 14.7 9 Sudeste 13 Este 0 -- -- 93
2018-05-21 00:00:00 15.1 6 Este 17 Nordeste 0 -- -- 90
2018-05-20 23:00:00 15.2 13 Nordeste 23 Nordeste 0 -- -- 88
2018-05-20 22:00:00 17.4 4 Nordeste 19 Oeste 0 -- -- 76
2018-05-20 21:00:00 16.8 10 Sudoeste 32 Este 0.4 -- -- 76
2018-05-20 20:00:00 20.5 9 Nordeste 32 Nordeste 0 -- -- 64
2018-05-20 19:00:00 20.4 11 Sudoeste 18 Sudoeste 0 -- -- 63
2018-05-20 18:00:00 20.5 10 Sudoeste 17 Sur 0 -- -- 68
2018-05-20 17:00:00 20.5 9 Sur 18 Sur 0 -- -- 68
2018-05-20 16:00:00 20.1 13 Sur 19 Sur 0 -- -- 71
2018-05-20 15:00:00 18.1 10 Este 21 Este 0 -- -- 81
2018-05-20 14:00:00 16.3 14 Sudeste 36 Oeste 0 -- -- 88
2018-05-20 13:00:00 15.9 14 Noroeste 21 Noroeste 0 -- -- 93
2018-05-20 12:00:00 15.6 10 Noroeste 24 Norte 2.6 -- -- 95
2018-05-20 11:00:00 15.1 7 Este 21 Nordeste 1.6 -- -- 95
2018-05-20 10:00:00 15.4 5 Sur 9 Norte 0.2 -- -- 92
2018-05-20 09:00:00 14.6 0 Calma 16 Sur 0 -- -- 93
2018-05-20 08:00:00 13.9 5 Sur 9 Sur 0 -- -- 96
2018-05-20 07:00:00 13 0 Calma 10 Sudeste 0 -- -- 96
2018-05-20 06:00:00 12.7 7 Sudeste 9 Sudeste 0 -- -- 96
2018-05-20 05:00:00 13 3 Este 8 Sudeste 0 -- -- 95
2018-05-20 04:00:00 13.3 7 Este 12 Este 0 -- -- 95
2018-05-20 03:00:00 14 9 Este 12 Este 0 -- -- 96
2018-05-20 02:00:00 14.6 6 Nordeste 12 Norte 0 -- -- 95
2018-05-20 01:00:00 15.3 3 Norte 10 Noroeste 0 -- -- 92
2018-05-20 00:00:00 16.4 5 Sudoeste 13 Sur 0 -- -- 86
2018-05-19 23:00:00 16.3 5 Sur 15 Este 0.6 -- -- 89
2018-05-19 22:00:00 16.5 12 Norte 34 Este 0.6 -- -- 86
2018-05-19 21:00:00 19.7 16 Sudeste 31 Sudeste 0 -- -- 68
2018-05-19 20:00:00 21 22 Sur 39 Sudeste 0 -- -- 65
2018-05-19 19:00:00 23.4 13 Sudoeste 18 Sudoeste 0.2 -- -- 53
2018-05-19 18:00:00 23.8 7 Oeste 21 Sudoeste 0 -- -- 61
2018-05-19 17:00:00 23 9 Sur 17 Norte 2.6 -- -- 63
2018-05-19 16:00:00 24.7 7 Norte 20 Oeste 0 -- -- 50
2018-05-19 15:00:00 24.3 7 Norte 21 Nordeste 0 -- -- 50
2018-05-19 14:00:00 24.1 8 Nordeste 22 Este 0 -- -- 51
2018-05-19 13:00:00 23 11 Este 21 Este 0 -- -- 56
2018-05-19 12:00:00 22.4 9 Nordeste 17 Nordeste 0 -- -- 56
2018-05-19 11:00:00 20.3 10 Nordeste 18 Nordeste 0 -- -- 73
2018-05-19 10:00:00 17.9 8 Nordeste 15 Nordeste 0 -- -- 84
2018-05-19 09:00:00 16.2 9 Norte 15 Nordeste 0 -- -- 91
2018-05-19 08:00:00 14.2 3 Este 9 Nordeste 0 -- -- 97
2018-05-19 07:00:00 13.5 6 Nordeste 10 Nordeste 0 -- -- 97
2018-05-19 06:00:00 13.7 4 Este 15 Nordeste 0 -- -- 94
2018-05-19 05:00:00 14.1 10 Nordeste 19 Nordeste 0 -- -- 94
2018-05-19 04:00:00 14.3 11 Nordeste 18 Norte 0 -- -- 93
2018-05-19 03:00:00 14.7 6 Nordeste 18 Sudeste 0 -- -- 90
2018-05-19 02:00:00 14.8 12 Sudeste 25 Sur 0 -- -- 89
2018-05-19 01:00:00 15.2 17 Sudeste 26 Sudeste 0 -- -- 90
2018-05-19 00:00:00 15.4 11 Sur 22 Sudeste 0.4 -- -- 92
2018-05-18 23:00:00 15.1 8 Sudeste 21 Nordeste 0.6 -- -- 91
2018-05-18 22:00:00 15.4 14 Este 22 Este 0.6 -- -- 93
2018-05-18 21:00:00 16.2 19 Este 32 Este 0 -- -- 85
2018-05-18 20:00:00 16.7 21 Este 32 Nordeste 0.2 -- -- 83
2018-05-18 19:00:00 18.4 14 Oeste 41 Oeste 0 -- -- 72
2018-05-18 18:00:00 21.6 26 Sudoeste 40 Sudoeste 0 -- -- 56
2018-05-18 17:00:00 26.4 13 Sudoeste 21 Sudoeste 0 -- -- 41
2018-05-18 16:00:00 25.1 17 Sudoeste 26 Sudoeste 0 -- -- 47
2018-05-18 15:00:00 24 17 Sudoeste 24 Oeste 0 -- -- 51
2018-05-18 14:00:00 22 17 Oeste 27 Sudoeste 0 -- -- 60
2018-05-18 13:00:00 21 20 Oeste 31 Sudoeste 0 -- -- 61
2018-05-18 12:00:00 20 20 Sudoeste 30 Sudoeste 0 -- -- 64
2018-05-18 11:00:00 18.3 14 Oeste 21 Sudoeste 0 -- -- 77
2018-05-18 10:00:00 17.2 10 Sudoeste 18 Sudoeste 0 -- -- 81
2018-05-18 09:00:00 15.7 12 Sur 15 Sur 0 -- -- 86
2018-05-18 08:00:00 14.2 8 Sur 15 Sur 0 -- -- 91
2018-05-18 07:00:00 14.1 11 Sur 15 Sur 0 -- -- 90
2018-05-18 06:00:00 14.3 11 Sur 14 Sur 0 -- -- 87
2018-05-18 05:00:00 14.9 10 Sur 17 Sur 0 -- -- 85
2018-05-18 04:00:00 15.5 12 Sudoeste 15 Sur 0 -- -- 81
2018-05-18 03:00:00 16.8 10 Oeste 23 Sudoeste 0 -- -- 75
2018-05-18 02:00:00 17.7 13 Oeste 22 Oeste 0 -- -- 72
2018-05-18 01:00:00 18.5 12 Sudoeste 22 Oeste 0 -- -- 69
2018-05-18 00:00:00 19.2 17 Oeste 33 Sudoeste 0 -- -- 60
2018-05-17 23:00:00 19.6 19 Sudoeste 36 Sudoeste 0 -- -- 60
2018-05-17 22:00:00 21.6 17 Noroeste 27 Oeste 0 -- -- 59
2018-05-17 21:00:00 25.3 17 Noroeste 30 Oeste 0 -- -- 50
2018-05-17 20:00:00 28.8 7 Norte 16 Norte 0 -- -- 30
2018-05-17 19:00:00 29.3 4 Este 19 Sur 0 -- -- 31
2018-05-17 18:00:00 29 11 Noroeste 19 Noroeste 0 -- -- 31
2018-05-17 17:00:00 28.6 11 Noroeste 18 Noroeste 0 -- -- 36
2018-05-17 16:00:00 27.6 5 Norte 18 Norte 0 -- -- 37
2018-05-17 15:00:00 26.7 9 Norte 22 Oeste 0 -- -- 40
2018-05-17 14:00:00 25.4 4 Sur 15 Sur 0 -- -- 43
2018-05-17 13:00:00 24.2 6 Sudoeste 13 Sudoeste 0 -- -- 49
2018-05-17 12:00:00 21.7 6 Oeste 10 Sudoeste 0 -- -- 51
2018-05-17 11:00:00 19.9 8 Oeste 17 Oeste 0 -- -- 59
2018-05-17 10:00:00 18.4 10 Sudoeste 17 Sudoeste 0 -- -- 65
2018-05-17 09:00:00 16.1 8 Sur 12 Sur 0 -- -- 74
2018-05-17 08:00:00 15.5 7 Sur 15 Sur 0 -- -- 71
2018-05-17 07:00:00 14.6 10 Sudeste 14 Sudeste 0 -- -- 71
2018-05-17 06:00:00 15.4 7 Sur 12 Sur 0 -- -- 68
2018-05-17 05:00:00 16.3 6 Sudoeste 19 Sur 0 -- -- 67
2018-05-17 04:00:00 16.7 4 Sur 10 Sudeste 0 -- -- 67
2018-05-17 03:00:00 17.6 4 Sudeste 14 Sur 0 -- -- 63
2018-05-17 02:00:00 18.3 8 Nordeste 17 Nordeste 0 -- -- 54
2018-05-17 01:00:00 18.9 6 Nordeste 17 Nordeste 0 -- -- 55
2018-05-17 00:00:00 20.1 13 Nordeste 19 Nordeste 0 -- -- 54
2018-05-16 23:00:00 20.7 13 Nordeste 17 Nordeste 0 -- -- 53
2018-05-16 22:00:00 23 13 Nordeste 16 Nordeste 0 -- -- 46
2018-05-16 21:00:00 26.2 11 Norte 23 Norte 0 -- -- 36
2018-05-16 20:00:00 27.7 16 Nordeste 27 Nordeste 0 -- -- 31
2018-05-16 19:00:00 28.4 15 Nordeste 28 Este 0 -- -- 30
2018-05-16 18:00:00 28 13 Nordeste 30 Nordeste 0 -- -- 30
2018-05-16 17:00:00 28.7 15 Nordeste 31 Nordeste 0 -- -- 30
2018-05-16 16:00:00 27.8 21 Nordeste 39 Nordeste 0 -- -- 30
2018-05-16 15:00:00 28.1 13 Este 35 Este 0 -- -- 34
2018-05-16 14:00:00 27.1 19 Nordeste 31 Nordeste 0 -- -- 33
2018-05-16 13:00:00 26.3 15 Este 26 Nordeste 0 -- -- 37
2018-05-16 12:00:00 24.5 14 Nordeste 22 Norte 0 -- -- 44
2018-05-16 11:00:00 22.1 9 Nordeste 17 Nordeste 0 -- -- 48
2018-05-16 10:00:00 18.1 12 Nordeste 17 Norte 0 -- -- 59
2018-05-16 09:00:00 14.9 4 Norte 9 Nordeste 0 -- -- 69
2018-05-16 08:00:00 11.8 0 Calma 8 Este 0 -- -- 79
2018-05-16 07:00:00 11.7 0 Calma 6 Nordeste 0 -- -- 79
2018-05-16 06:00:00 12.5 0 Calma 10 Norte 0 -- -- 75
2018-05-16 05:00:00 12.7 0 Calma 8 Nordeste 0 -- -- 73
2018-05-16 04:00:00 13.1 6 Norte 9 Norte 0 -- -- 71
2018-05-16 03:00:00 13.6 3 Este 8 Este 0 -- -- 67
2018-05-16 02:00:00 15.5 4 Nordeste 6 Este 0 -- -- 55
2018-05-16 01:00:00 16.6 3 Norte 6 Noroeste 0 -- -- 52
2018-05-16 00:00:00 18.4 0 Calma 10 Nordeste 0 -- -- 47
2018-05-15 23:00:00 19.6 10 Nordeste 15 Nordeste 0 -- -- 38
2018-05-15 22:00:00 21.9 12 Nordeste 17 Nordeste 0 -- -- 33
2018-05-15 21:00:00 24.4 11 Nordeste 19 Nordeste 0 -- -- 31
2018-05-15 20:00:00 25.6 12 Nordeste 26 Norte 0 -- -- 30
2018-05-15 19:00:00 26 15 Norte 27 Norte 0 -- -- 32
2018-05-15 18:00:00 26.4 13 Nordeste 28 Norte 0 -- -- 29
2018-05-15 17:00:00 26 15 Nordeste 27 Nordeste 0 -- -- 31
2018-05-15 16:00:00 26 11 Nordeste 32 Nordeste 0 -- -- 30
2018-05-15 15:00:00 24.9 12 Este 33 Este 0 -- -- 34
2018-05-15 14:00:00 24.4 14 Nordeste 33 Este 0 -- -- 31
2018-05-15 13:00:00 23.3 19 Este 31 Este 0 -- -- 35
2018-05-15 12:00:00 22.1 13 Norte 23 Nordeste 0 -- -- 48
2018-05-15 11:00:00 20 12 Nordeste 24 Nordeste 0 -- -- 49
2018-05-15 10:00:00 17.3 17 Nordeste 27 Nordeste 0 -- -- 61
2018-05-15 09:00:00 14.2 15 Nordeste 24 Nordeste 0 -- -- 71
2018-05-15 08:00:00 11.9 7 Nordeste 14 Nordeste 0 -- -- 81
2018-05-15 07:00:00 11.4 2 Este 15 Nordeste 0 -- -- 90
2018-05-15 06:00:00 11.7 4 Nordeste 11 Norte 0 -- -- 93
2018-05-15 05:00:00 11.7 5 Nordeste 13 Norte 0 -- -- 92
2018-05-15 04:00:00 12.5 8 Norte 12 Norte 0 -- -- 92
2018-05-15 03:00:00 13.5 5 Norte 16 Norte 0 -- -- 87
2018-05-15 02:00:00 14.3 12 Norte 19 Norte 0 -- -- 83
2018-05-15 01:00:00 15.7 13 Norte 19 Norte 0 -- -- 76
2018-05-15 00:00:00 16.1 12 Norte 15 Norte 0 -- -- 76
2018-05-14 23:00:00 17.5 12 Norte 21 Norte 0 -- -- 72
2018-05-14 22:00:00 19.2 12 Norte 23 Nordeste 0 -- -- 61
2018-05-14 21:00:00 21.9 14 Norte 32 Norte 0 -- -- 44
2018-05-14 20:00:00 22.8 23 Norte 37 Norte 0 -- -- 42
2018-05-14 19:00:00 23 21 Norte 38 Nordeste 0 -- -- 45
2018-05-14 18:00:00 23.6 23 Norte 39 Nordeste 0 -- -- 43
2018-05-14 17:00:00 23.8 22 Norte 36 Norte 0 -- -- 42
2018-05-14 16:00:00 23.1 19 Norte 36 Norte 0 -- -- 46
2018-05-14 15:00:00 22.5 19 Norte 35 Norte 0 -- -- 50
2018-05-14 14:00:00 21.5 13 Norte 33 Nordeste 0 -- -- 51
2018-05-14 13:00:00 20.4 17 Nordeste 34 Norte 0 -- -- 53
2018-05-14 12:00:00 18.5 15 Norte 27 Norte 0 -- -- 55
2018-05-14 11:00:00 16.2 18 Norte 30 Norte 0 -- -- 61
2018-05-14 10:00:00 13.6 8 Norte 17 Norte 0 -- -- 72
2018-05-14 09:00:00 11.4 14 Norte 21 Nordeste 0 -- -- 79
2018-05-14 08:00:00 9.3 5 Nordeste 13 Norte 0 -- -- 85
2018-05-14 07:00:00 8.4 9 Norte 13 Norte 0 -- -- 88
2018-05-14 06:00:00 8.1 10 Nordeste 12 Nordeste 0 -- -- 91
2018-05-14 05:00:00 9 5 Norte 8 Norte 0 -- -- 86
2018-05-14 04:00:00 9.8 4 Norte 9 Norte 0 -- -- 81
2018-05-14 03:00:00 10.9 6 Norte 17 Norte 0 -- -- 78
2018-05-14 02:00:00 11.3 14 Norte 18 Norte 0 -- -- 76
2018-05-14 01:00:00 11.8 8 Norte 16 Norte 0 -- -- 75
2018-05-11 20:00:00 -- -- -- -- -- -- -- -- --
2018-05-11 19:00:00 -- -- -- -- -- -- -- -- --
2018-05-11 18:00:00 23.1 14 Sudoeste 20 Sudoeste 0 -- -- 56
2018-05-11 17:00:00 23 13 Sudoeste 22 Sudoeste 0 -- -- 57
2018-05-11 16:00:00 22.5 12 Sudoeste 18 Sudoeste 0 -- -- 58
2018-05-11 15:00:00 21.1 14 Sudoeste 18 Sudoeste 0 -- -- 64
2018-05-11 14:00:00 19.7 11 Sudoeste 21 Sudoeste 0 -- -- 63
2018-05-11 13:00:00 18.6 10 Sudoeste 17 Sudoeste 0 -- -- 61
2018-05-11 12:00:00 16.8 8 Sudoeste 14 Oeste 0 -- -- 76
2018-05-11 11:00:00 15.3 5 Sudoeste 12 Sudoeste 0 -- -- 80
2018-05-11 10:00:00 14 8 Sudoeste 12 Sudoeste 0 -- -- 87
2018-05-11 09:00:00 13 6 Sur 9 Sudeste 0 -- -- 94
2018-05-11 08:00:00 11.3 6 Sudeste 8 Sudeste 0 -- -- 95
2018-05-11 07:00:00 11.9 0 Calma 9 Sudoeste 0 -- -- 93
2018-05-11 06:00:00 12.2 5 Sur 8 Sur 0 -- -- 93
2018-05-11 05:00:00 13 7 Sur 14 Sur 0 -- -- 92
2018-05-11 04:00:00 13.3 12 Sur 17 Sur 0 -- -- 90
2018-05-11 03:00:00 13.9 13 Sudoeste 24 Sudoeste 0 -- -- 89
2018-05-11 02:00:00 14.7 15 Sur 23 Sur 0 -- -- 86
2018-05-11 01:00:00 15.5 15 Sudoeste 24 Sur 0 -- -- 82
2018-05-11 00:00:00 16.6 10 Sur 19 Sur 0 -- -- 80
2018-05-10 23:00:00 19.5 5 Sudoeste 8 Sur 0 -- -- 68
2018-05-10 22:00:00 20.9 4 Oeste 10 Noroeste 0 -- -- 59
2018-05-10 21:00:00 23.1 6 Noroeste 12 Oeste 0 -- -- 53
2018-05-10 20:00:00 24.3 6 Noroeste 11 Oeste 0 -- -- 51
2018-05-10 19:00:00 24.2 7 Oeste 14 Oeste 0 -- -- 53
2018-05-10 18:00:00 23.8 10 Oeste 17 Oeste 0 -- -- 51
2018-05-10 17:00:00 23.2 10 Oeste 18 Oeste 0 -- -- 56
2018-05-10 16:00:00 22.4 9 Sudoeste 20 Sur 0 -- -- 58
2018-05-10 15:00:00 21.2 6 Noroeste 17 Norte 0 -- -- 59
2018-05-10 14:00:00 19.7 10 Oeste 17 Oeste 0 -- -- 62
2018-05-10 13:00:00 17.9 9 Oeste 14 Oeste 0 -- -- 69
2018-05-10 12:00:00 16.1 7 Oeste 12 Sudoeste 0 -- -- 76
2018-05-10 11:00:00 14.2 6 Oeste 10 Sudoeste 0 -- -- 79
2018-05-10 10:00:00 13 2 Oeste 5 Sudeste 0 -- -- 82
2018-05-10 09:00:00 11.7 3 Este 4 Este 0 -- -- 89
2018-05-10 08:00:00 9.8 0 Calma 4 Sudeste 0 -- -- 94
2018-05-10 07:00:00 10 0 Calma 5 Norte 0 -- -- 92
2018-05-10 06:00:00 10.2 3 Norte 7 Norte 0 -- -- 91
2018-05-10 05:00:00 10.6 4 Noroeste 8 Norte 0 -- -- 90
2018-05-10 04:00:00 11.1 4 Noroeste 12 Noroeste 0 -- -- 87
2018-05-10 03:00:00 11.6 8 Noroeste 22 Noroeste 0 -- -- 86
2018-05-10 02:00:00 12.4 12 Noroeste 19 Noroeste 0 -- -- 83
2018-05-10 01:00:00 12.9 11 Noroeste 18 Noroeste 0 -- -- 82
2018-05-10 00:00:00 13.3 13 Noroeste 24 Noroeste 0 -- -- 79
2018-05-09 23:00:00 13.9 17 Noroeste 30 Noroeste 0 -- -- 75
2018-05-09 22:00:00 15.7 15 Noroeste 24 Noroeste 0 -- -- 75
2018-05-09 21:00:00 16.7 16 Noroeste 30 Noroeste 0 -- -- 76
2018-05-09 20:00:00 17.7 15 Noroeste 27 Noroeste 0 -- -- 75
2018-05-09 19:00:00 19 18 Oeste 30 Oeste 0 -- -- 70
2018-05-09 18:00:00 19.2 19 Noroeste 27 Noroeste 0 -- -- 73
2018-05-09 17:00:00 19 12 Oeste 21 Noroeste 0 -- -- 73
2018-05-09 16:00:00 17.7 13 Noroeste 22 Oeste 0 -- -- 79
2018-05-09 15:00:00 16.9 13 Noroeste 21 Noroeste 0 -- -- 81
2018-05-09 14:00:00 16.3 10 Oeste 19 Oeste 0 -- -- 84
2018-05-09 13:00:00 15.7 11 Noroeste 15 Oeste 0 -- -- 86
2018-05-09 12:00:00 15.4 8 Noroeste 17 Oeste 0 -- -- 86
2018-05-09 11:00:00 14.9 0 Calma 8 Oeste 0 -- -- 89
2018-05-09 10:00:00 14.1 5 Noroeste 9 Noroeste 0 -- -- 91
2018-05-09 09:00:00 13.3 4 Sudoeste 17 Oeste 0 -- -- 92
2018-05-09 08:00:00 12.7 10 Oeste 17 Oeste 0 -- -- 94
2018-05-09 07:00:00 12.9 8 Sudoeste 13 Oeste 0 -- -- 93
2018-05-09 06:00:00 12.7 0 Calma 10 Noroeste 0 -- -- 92
2018-05-09 05:00:00 12.5 2 Norte 8 Noroeste 0 -- -- 94
2018-05-09 04:00:00 12.1 6 Norte 15 Norte 0 -- -- 93
2018-05-09 03:00:00 12.7 10 Noroeste 18 Noroeste 0 -- -- 91
2018-05-09 02:00:00 13.5 6 Noroeste 17 Norte 0 -- -- 87
2018-05-09 01:00:00 14.6 9 Noroeste 17 Noroeste 0 -- -- 82
2018-05-09 00:00:00 15.9 6 Noroeste 12 Noroeste 0 -- -- 79
2018-05-08 23:00:00 17.1 8 Norte 18 Noroeste 0 -- -- 74
2018-05-08 22:00:00 18.5 13 Noroeste 22 Noroeste 0 -- -- 74
2018-05-08 21:00:00 20.2 15 Noroeste 31 Noroeste 0 -- -- 70
2018-05-08 20:00:00 22.8 14 Noroeste 26 Noroeste 0 -- -- 66
2018-05-08 19:00:00 24.7 17 Noroeste 28 Noroeste 0 -- -- 60
2018-05-08 18:00:00 24.7 17 Noroeste 27 Noroeste 0 -- -- 55
2018-05-08 17:00:00 24.7 13 Noroeste 24 Oeste 0 -- -- 59
2018-05-08 16:00:00 24.4 10 Oeste 22 Oeste 0 -- -- 65
2018-05-08 15:00:00 22.7 6 Sudoeste 12 Oeste 0 -- -- 72
2018-05-08 14:00:00 20.8 7 Sudoeste 12 Sur 0 -- -- 76
2018-05-08 13:00:00 18.6 6 Sur 11 Sur 0 -- -- 82
2018-05-08 12:00:00 16.9 3 Oeste 10 Oeste 0 -- -- 90
2018-05-08 11:00:00 15.9 4 Noroeste 12 Sudoeste 1.4 -- -- 91
2018-05-08 10:00:00 15.7 5 Sudoeste 13 Oeste 0 -- -- 91
2018-05-08 09:00:00 15.4 9 Oeste 13 Oeste 0.2 -- -- 89
2018-05-08 08:00:00 15.1 0 Calma 10 Oeste 0 -- -- 92
2018-05-08 07:00:00 15.5 8 Oeste 11 Oeste 0 -- -- 90
2018-05-08 06:00:00 15.6 5 Oeste 13 Oeste 0 -- -- 88
2018-05-08 05:00:00 15.9 7 Noroeste 13 Oeste 0 -- -- 86
2018-05-08 04:00:00 16.2 8 Oeste 12 Oeste 0 -- -- 90
2018-05-08 03:00:00 15.6 2 Sudeste 10 Sudeste 0 -- -- 90
2018-05-08 02:00:00 15.7 9 Sudeste 12 Sudeste 0 -- -- 91
2018-05-08 01:00:00 15.8 3 Nordeste 6 Norte 0 -- -- 91
2018-05-08 00:00:00 16.1 5 Noroeste 12 Norte 0 -- -- 88
2018-05-07 23:00:00 16.7 8 Norte 12 Noroeste 0 -- -- 86
2018-05-07 22:00:00 18.2 7 Sudoeste 13 Oeste 0.2 -- -- 80
2018-05-07 21:00:00 18.8 9 Nordeste 21 Nordeste 0 -- -- 73
2018-05-07 20:00:00 21.4 8 Norte 33 Noroeste 0 -- -- 63
2018-05-07 19:00:00 22.5 9 Oeste 28 Sudoeste 0 -- -- 62
2018-05-07 18:00:00 22.5 14 Sudoeste 29 Sur 0 -- -- 64
2018-05-07 17:00:00 24.1 24 Sur 33 Sudoeste 0 -- -- 57
2018-05-07 16:00:00 24.9 13 Oeste 19 Sudoeste 0 -- -- 49
2018-05-07 15:00:00 23.1 12 Sudoeste 15 Sudoeste 0 -- -- 58
2018-05-07 14:00:00 23.8 8 Oeste 12 Oeste 0 -- -- 56
2018-05-07 13:00:00 22.8 7 Oeste 11 Oeste 0 -- -- 52
2018-05-07 12:00:00 21.7 6 Noroeste 10 Oeste 0 -- -- 70
2018-05-07 11:00:00 19.5 4 Norte 10 Norte 0 -- -- 79
2018-05-07 10:00:00 17.1 3 Oeste 6 Nordeste 0 -- -- 87
2018-05-07 09:00:00 15.1 4 Nordeste 9 Nordeste 0 -- -- 88
2018-05-07 08:00:00 13.8 4 Nordeste 6 Este 0 -- -- 95
2018-05-07 07:00:00 13.4 5 Este 7 Este 0 -- -- 95
2018-05-07 06:00:00 14.2 5 Sudeste 7 Sudeste 0 -- -- 92
2018-05-07 05:00:00 14.8 0 Calma 6 Sudeste 0 -- -- 92
2018-05-07 04:00:00 15 4 Sur 9 Sudeste 0 -- -- 92
2018-05-07 03:00:00 14.9 4 Este 13 Este 0 -- -- 91
2018-05-07 02:00:00 15 8 Este 11 Sudeste 0 -- -- 89
2018-05-07 01:00:00 15.9 0 Calma 5 Noroeste 0 -- -- 85
2018-05-07 00:00:00 16.5 2 Sudeste 7 Sudeste 0 -- -- 80
2018-05-06 23:00:00 17.3 5 Sudeste 22 Sur 0 -- -- 79
2018-05-06 22:00:00 18 5 Nordeste 8 Norte 0 -- -- 78
2018-05-06 21:00:00 18.7 7 Norte 35 Sudeste 0 -- -- 77
2018-05-06 20:00:00 21 13 Sudeste 26 Sudeste 0 -- -- 71
2018-05-06 19:00:00 21.1 4 Este 13 Este 0.2 -- -- 77
2018-05-06 18:00:00 22.2 3 Noroeste 17 Noroeste 0 -- -- 65
2018-05-06 17:00:00 20.4 6 Noroeste 24 Sur 7 -- -- 76
2018-05-06 16:00:00 23.3 20 Sur 27 Sur 0 -- -- 60
2018-05-06 15:00:00 24.8 12 Sudoeste 21 Sudoeste 0 -- -- 50
2018-05-06 14:00:00 24.8 6 Oeste 14 Oeste 0 -- -- 52
2018-05-06 13:00:00 23.5 12 Oeste 15 Oeste 0 -- -- 59
2018-05-06 12:00:00 22.9 6 Norte 14 Norte 0 -- -- 63
2018-05-06 11:00:00 20.7 5 Nordeste 10 Norte 0 -- -- 65
2018-05-06 10:00:00 16.7 5 Norte 15 Nordeste 0 -- -- 76
2018-05-06 09:00:00 14 0 Calma 6 Norte 0 -- -- 87
2018-05-06 08:00:00 12.5 3 Nordeste 6 Norte 0 -- -- 87
2018-05-06 07:00:00 12.2 4 Este 6 Este 0 -- -- 83
2018-05-06 06:00:00 13.3 4 Este 9 Nordeste 0 -- -- 80
2018-05-06 05:00:00 13.7 3 Este 6 Este 0 -- -- 80
2018-05-06 04:00:00 14.4 3 Nordeste 8 Norte 0 -- -- 79
2018-05-06 03:00:00 15.4 6 Norte 16 Norte 0 -- -- 74
2018-05-06 02:00:00 15.6 7 Norte 10 Norte 0 -- -- 74
2018-05-06 01:00:00 16.6 5 Norte 12 Noroeste 0 -- -- 74
2018-05-06 00:00:00 18.1 0 Calma 4 Norte 0 -- -- 62
2018-05-05 23:00:00 19.3 3 Este 10 Noroeste 0 -- -- 55
2018-05-05 22:00:00 21.1 7 Nordeste 8 Nordeste 0 -- -- 47
2018-05-05 21:00:00 24.3 0 Calma 5 Oeste 0 -- -- 43
2018-05-05 20:00:00 25.5 3 Oeste 9 Sur 0 -- -- 38
2018-05-05 19:00:00 25.4 4 Sur 15 Sudoeste 0 -- -- 39
2018-05-05 18:00:00 25.1 9 Sudoeste 14 Oeste 0 -- -- 36
2018-05-05 17:00:00 24.8 9 Sudoeste 14 Oeste 0 -- -- 34
2018-05-05 16:00:00 24.2 6 Oeste 13 Oeste 0 -- -- 48
2018-05-05 15:00:00 23.2 9 Oeste 14 Oeste 0 -- -- 48
2018-05-05 14:00:00 22.3 9 Oeste 14 Noroeste 0 -- -- 50
2018-05-05 13:00:00 20.7 7 Oeste 12 Oeste 0 -- -- 57
2018-05-05 12:00:00 18.9 7 Oeste 10 Oeste 0 -- -- 65
2018-05-05 11:00:00 16.2 5 Oeste 9 Oeste 0 -- -- 71
2018-05-05 10:00:00 13.8 3 Oeste 6 Oeste 0 -- -- 76
2018-05-05 09:00:00 11.8 3 Sudeste 6 Nordeste 0 -- -- 82
2018-05-05 08:00:00 9.9 4 Este 6 Nordeste 0 -- -- 87
2018-05-05 07:00:00 9.7 3 Norte 4 Norte 0 -- -- 86
2018-05-05 06:00:00 10.1 3 Sur 4 Norte 0 -- -- 81
2018-05-05 05:00:00 11 0 Calma 6 Este 0 -- -- 75
2018-05-05 04:00:00 11.3 0 Calma 5 Este 0 -- -- 75
2018-05-05 03:00:00 11.6 2 Sur 8 Sudoeste 0 -- -- 76
2018-05-05 02:00:00 11.8 2 Nordeste 8 Sudeste 0 -- -- 73
2018-05-05 01:00:00 13.5 6 Este 12 Nordeste 0 -- -- 66
2018-05-05 00:00:00 14.5 9 Nordeste 19 Nordeste 0 -- -- 61
2018-05-04 23:00:00 16.5 12 Nordeste 18 Nordeste 0 -- -- 52
2018-05-04 22:00:00 17 13 Nordeste 18 Nordeste 0 -- -- 51
2018-05-04 21:00:00 19.6 12 Nordeste 21 Nordeste 0 -- -- 45
2018-05-04 20:00:00 21.2 10 Nordeste 30 Nordeste 0 -- -- 37
2018-05-04 19:00:00 21.5 14 Nordeste 28 Nordeste 0 -- -- 36
2018-05-04 18:00:00 21.5 17 Nordeste 34 Norte 0 -- -- 38
2018-05-04 17:00:00 21.5 16 Nordeste 32 Este 0 -- -- 39
2018-05-04 16:00:00 21.2 18 Nordeste 31 Nordeste 0 -- -- 37
2018-05-04 15:00:00 20.3 18 Este 37 Este 0 -- -- 42
2018-05-04 14:00:00 19.5 18 Nordeste 34 Este 0 -- -- 46
2018-05-04 13:00:00 18.5 19 Nordeste 33 Nordeste 0 -- -- 51
2018-05-04 12:00:00 16.9 18 Nordeste 30 Este 0 -- -- 52
2018-05-04 11:00:00 14.8 18 Nordeste 37 Nordeste 0 -- -- 57
2018-05-04 10:00:00 12.8 24 Nordeste 41 Nordeste 0 -- -- 60
2018-05-04 09:00:00 11.5 27 Nordeste 41 Nordeste 0 -- -- 62
2018-05-04 08:00:00 10.2 25 Nordeste 36 Nordeste 0 -- -- 69
2018-05-04 07:00:00 10.3 19 Nordeste 30 Nordeste 0 -- -- 70
2018-05-04 06:00:00 10.5 15 Nordeste 24 Nordeste 0 -- -- 71
2018-05-04 05:00:00 9.9 10 Norte 14 Norte 0 -- -- 88
2018-05-04 04:00:00 11.1 6 Norte 11 Norte 0 -- -- 86
2018-05-04 03:00:00 11.9 9 Norte 15 Norte 0 -- -- 86
2018-05-04 02:00:00 12.8 9 Norte 18 Norte 0 -- -- 85
2018-05-04 01:00:00 14.3 14 Norte 25 Norte 0 -- -- 81
2018-05-04 00:00:00 15.9 19 Norte 34 Nordeste 0 -- -- 74
2018-05-03 23:00:00 16.9 14 Norte 28 Norte 0 -- -- 69
2018-05-03 22:00:00 17.9 15 Norte 23 Norte 0 -- -- 64
2018-05-03 21:00:00 19.7 12 Norte 30 Norte 0 -- -- 58
2018-05-03 20:00:00 20.3 17 Norte 31 Noroeste 0 -- -- 55
2018-05-03 19:00:00 21.4 14 Norte 30 Norte 0 -- -- 48
2018-05-03 18:00:00 20.9 14 Norte 26 Norte 0 -- -- 52
2018-05-03 17:00:00 21.4 16 Noroeste 26 Norte 0 -- -- 50
2018-05-03 16:00:00 21.8 11 Norte 26 Noroeste 0 -- -- 52
2018-05-03 15:00:00 21.1 12 Norte 23 Norte 0 -- -- 54
2018-05-03 14:00:00 20.3 12 Norte 22 Norte 0 -- -- 58
2018-05-03 13:00:00 18.9 10 Norte 19 Nordeste 0 -- -- 60
2018-05-03 12:00:00 17.3 5 Norte 15 Nordeste 0 -- -- 68
2018-05-03 11:00:00 14.2 7 Norte 12 Norte 0 -- -- 78
2018-05-03 10:00:00 12 3 Oeste 6 Oeste 0 -- -- 90
2018-05-03 09:00:00 10.2 2 Sudeste 4 Este 0 -- -- 93
2018-05-03 08:00:00 8.4 3 Norte 6 Nordeste 0 -- -- 97
2018-05-03 07:00:00 8.6 4 Nordeste 6 Nordeste 0 -- -- 95
2018-05-03 06:00:00 9 3 Nordeste 6 Nordeste 0 -- -- 95
2018-05-03 05:00:00 9.7 0 Calma 8 Norte 0 -- -- 91
2018-05-03 04:00:00 9.9 2 Nordeste 12 Nordeste 0 -- -- 90
2018-05-03 03:00:00 10.4 7 Norte 17 Norte 0 -- -- 91
2018-05-03 02:00:00 10.5 11 Norte 17 Norte 0 -- -- 90
2018-05-03 01:00:00 10.3 6 Norte 9 Norte 0 -- -- 90
2018-05-03 00:00:00 11.6 4 Norte 17 Norte 0 -- -- 86
2018-05-02 23:00:00 12.4 12 Norte 24 Noroeste 0 -- -- 83
2018-05-02 22:00:00 13.6 12 Noroeste 21 Noroeste 0 -- -- 76
2018-05-02 21:00:00 14.2 14 Noroeste 23 Noroeste 0 -- -- 72
2018-05-02 20:00:00 14.6 16 Noroeste 28 Noroeste 0 -- -- 70
2018-05-02 19:00:00 16.2 5 Noroeste 14 Noroeste 0 -- -- 56
2018-05-02 18:00:00 16 9 Noroeste 19 Oeste 0 -- -- 55
2018-05-02 17:00:00 15.6 10 Oeste 19 Oeste 0 -- -- 62
2018-05-02 16:00:00 16.9 6 Oeste 13 Oeste 0 -- -- 60
2018-05-02 15:00:00 16.5 5 Sudoeste 12 Sudoeste 0 -- -- 58
2018-05-02 14:00:00 15.3 5 Oeste 11 Oeste 0 -- -- 61
2018-05-02 13:00:00 14.3 4 Oeste 13 Noroeste 0 -- -- 70
2018-05-02 12:00:00 13.3 5 Oeste 10 Oeste 0 -- -- 69
2018-05-02 11:00:00 12.1 3 Oeste 9 Sur 0 -- -- 75
2018-05-02 10:00:00 9.8 4 Sur 8 Sur 0 -- -- 86
2018-05-02 09:00:00 6.8 4 Sudeste 8 Este 0 -- -- 93
2018-05-02 08:00:00 5.8 5 Sudeste 8 Sudeste 0 -- -- 92
2018-05-02 07:00:00 5.6 4 Este 5 Este 0 -- -- 91
2018-05-02 06:00:00 7 3 Sudeste 6 Sur 0 -- -- 89
2018-05-02 05:00:00 7.5 2 Noroeste 12 Noroeste 0 -- -- 85
2018-05-02 04:00:00 7.8 6 Noroeste 10 Noroeste 0 -- -- 81
2018-05-02 03:00:00 8.4 4 Noroeste 9 Noroeste 0 -- -- 78
2018-05-02 02:00:00 8.9 0 Calma 12 Noroeste 0 -- -- 74
2018-05-02 01:00:00 9.6 10 Noroeste 23 Noroeste 0 -- -- 73
2018-05-02 00:00:00 10.5 11 Noroeste 24 Noroeste 0 -- -- 69
2018-05-01 23:00:00 11.7 17 Noroeste 32 Noroeste 0 -- -- 64
2018-05-01 22:00:00 12.9 13 Noroeste 23 Noroeste 0 -- -- 62
2018-05-01 21:00:00 15.6 12 Noroeste 23 Noroeste 0 -- -- 48
2018-05-01 20:00:00 17.2 15 Noroeste 29 Noroeste 0 -- -- 45
2018-05-01 19:00:00 17.4 14 Noroeste 27 Noroeste 0 -- -- 48
2018-05-01 18:00:00 17.2 17 Noroeste 32 Noroeste 0 -- -- 50
2018-05-01 17:00:00 17.2 14 Oeste 24 Oeste 0 -- -- 53
2018-05-01 16:00:00 15.3 14 Oeste 20 Norte 0.2 -- -- 59
2018-05-01 15:00:00 14.2 7 Noroeste 22 Norte 0 -- -- 63
2018-05-01 14:00:00 14 4 Sudeste 17 Sur 0 -- -- 70
2018-05-01 13:00:00 14.1 8 Sudoeste 14 Sur 0 -- -- 72
2018-05-01 12:00:00 12.4 0 Calma 10 Norte 0 -- -- 81
2018-05-01 11:00:00 10 0 Calma 10 Nordeste 0 -- -- 87
2018-05-01 10:00:00 8.5 6 Nordeste 18 Norte 0 -- -- 91
2018-05-01 09:00:00 7.8 9 Norte 15 Norte 0 -- -- 93
2018-05-01 08:00:00 7.1 8 Norte 14 Norte 0 -- -- 96
2018-05-01 07:00:00 6.3 4 Norte 10 Noroeste 0 -- -- 95
2018-05-01 06:00:00 7 6 Noroeste 9 Norte 0 -- -- 94
2018-05-01 05:00:00 7.9 0 Calma 7 Noroeste 0 -- -- 92
2018-05-01 04:00:00 8.8 0 Calma 10 Noroeste 0 -- -- 90
2018-05-01 03:00:00 9.7 7 Noroeste 13 Noroeste 0 -- -- 88
2018-05-01 02:00:00 10.2 7 Norte 13 Noroeste 0 -- -- 86
2018-05-01 01:00:00 10.5 7 Noroeste 14 Noroeste 0 -- -- 83
2018-05-01 00:00:00 11 7 Norte 12 Noroeste 0 -- -- 80
2018-04-30 23:00:00 11.8 10 Norte 17 Norte 0 -- -- 76
2018-04-30 22:00:00 12.3 11 Noroeste 23 Noroeste 0 -- -- 73
2018-04-30 21:00:00 13.4 14 Noroeste 29 Noroeste 0 -- -- 67
2018-04-30 20:00:00 16 14 Noroeste 27 Noroeste 0 -- -- 49
2018-04-30 19:00:00 15.9 9 Norte 22 Oeste 0 -- -- 43
2018-04-30 18:00:00 16.8 10 Oeste 21 Oeste 0 -- -- 44
2018-04-30 17:00:00 15.7 5 Sudoeste 13 Oeste 0 -- -- 56
2018-04-30 16:00:00 14.7 6 Nordeste 19 Sudoeste 0 -- -- 59
2018-04-30 15:00:00 15.1 9 Oeste 17 Oeste 0 -- -- 59
2018-04-30 14:00:00 14.1 8 Sudoeste 14 Oeste 0 -- -- 63
2018-04-30 13:00:00 13.3 9 Sudoeste 15 Sudoeste 0 -- -- 68
2018-04-30 12:00:00 12.6 6 Sudoeste 13 Sudoeste 0 -- -- 72
2018-04-30 11:00:00 11.1 6 Sudoeste 11 Sur 0 -- -- 84
2018-04-30 10:00:00 9.3 6 Sudoeste 14 Sur 0 -- -- 92
2018-04-30 09:00:00 8.4 7 Sur 12 Sur 0.6 -- -- 94
2018-04-30 08:00:00 8 7 Sur 13 Sudeste 0 -- -- 91
2018-04-30 07:00:00 7.8 7 Sur 14 Sur 0 -- -- 92
2018-04-30 06:00:00 8.1 6 Sur 12 Sur 0 -- -- 90
2018-04-30 05:00:00 8.4 6 Sur 10 Oeste 0 -- -- 90
2018-04-30 04:00:00 8 0 Calma 5 Noroeste 0 -- -- 87
2018-04-30 03:00:00 7.7 4 Norte 12 Oeste 0 -- -- 88
2018-04-30 02:00:00 8.8 7 Noroeste 24 Oeste 0 -- -- 84
2018-04-30 01:00:00 9.5 15 Oeste 30 Oeste 0 -- -- 80
2018-04-30 00:00:00 10.1 17 Oeste 26 Oeste 0 -- -- 77
2018-04-29 23:00:00 10.7 16 Oeste 29 Oeste 0 -- -- 72
2018-04-29 22:00:00 11.7 18 Oeste 31 Oeste 0 -- -- 67
2018-04-29 21:00:00 12.8 22 Oeste 40 Oeste 0 -- -- 63
2018-04-29 20:00:00 14.1 22 Oeste 39 Oeste 0 -- -- 60
2018-04-29 19:00:00 14.8 25 Oeste 46 Oeste 0 -- -- 56
2018-04-29 18:00:00 15.2 30 Noroeste 46 Noroeste 0 -- -- 53
2018-04-29 17:00:00 14.2 25 Noroeste 52 Noroeste 0 -- -- 64
2018-04-29 16:00:00 13.2 21 Oeste 50 Oeste 0.6 -- -- 77
2018-04-29 15:00:00 14.5 27 Oeste 45 Oeste 0 -- -- 60
2018-04-29 14:00:00 13.5 29 Oeste 42 Oeste 0 -- -- 70
2018-04-29 13:00:00 9.7 27 Noroeste 50 Noroeste 0.6 -- -- 87
2018-04-29 12:00:00 13.4 25 Oeste 41 Oeste 0 -- -- 65
2018-04-29 11:00:00 11.8 19 Oeste 37 Oeste 0 -- -- 77
2018-04-29 10:00:00 10.5 19 Oeste 33 Oeste 0 -- -- 79
2018-04-29 09:00:00 9.1 18 Oeste 31 Oeste 0 -- -- 87
2018-04-29 08:00:00 8.3 14 Oeste 26 Oeste 0 -- -- 90
2018-04-29 07:00:00 8.3 14 Oeste 29 Oeste 0 -- -- 90
2018-04-29 06:00:00 8.7 16 Oeste 27 Oeste 0 -- -- 90
2018-04-29 05:00:00 8.3 15 Oeste 29 Sudoeste 0 -- -- 92
2018-04-29 04:00:00 8.7 13 Oeste 31 Oeste 0 -- -- 91
2018-04-29 03:00:00 8.8 19 Oeste 34 Oeste 0 -- -- 91
2018-04-29 02:00:00 9.2 21 Oeste 35 Oeste 0 -- -- 90
2018-04-29 01:00:00 9.2 18 Oeste 29 Oeste 0 -- -- 87
2018-04-29 00:00:00 9.1 16 Oeste 27 Oeste 0 -- -- 87
2018-04-28 23:00:00 9.5 12 Oeste 26 Oeste 0.8 -- -- 86
2018-04-28 22:00:00 10.1 13 Oeste 42 Noroeste 0.2 -- -- 84
2018-04-28 21:00:00 11.6 24 Noroeste 47 Oeste 0 -- -- 81
2018-04-28 20:00:00 13.5 21 Oeste 37 Oeste 0.2 -- -- 66
2018-04-28 19:00:00 13.6 17 Noroeste 29 Noroeste 0 -- -- 68
2018-04-28 18:00:00 14.3 24 Sudoeste 36 Sudoeste 0 -- -- 68
2018-04-28 17:00:00 16.9 20 Sudoeste 33 Sudoeste 0 -- -- 52
2018-04-28 16:00:00 15.6 17 Sudoeste 32 Sudoeste 0 -- -- 56
2018-04-28 15:00:00 15 15 Sudoeste 32 Oeste 0 -- -- 55
2018-04-28 14:00:00 14.1 13 Sudoeste 23 Sudoeste 0 -- -- 60
2018-04-28 13:00:00 14.1 11 Oeste 22 Oeste 0 -- -- 59
2018-04-28 12:00:00 13.6 13 Oeste 19 Noroeste 0 -- -- 63
2018-04-28 11:00:00 12.1 10 Noroeste 19 Oeste 0 -- -- 74
2018-04-28 10:00:00 10.4 5 Oeste 12 Oeste 0 -- -- 84
2018-04-28 09:00:00 9 5 Oeste 12 Oeste 0 -- -- 90
2018-04-28 08:00:00 7.6 0 Calma 11 Oeste 0 -- -- 91
2018-04-28 07:00:00 7.8 7 Oeste 12 Oeste 0 -- -- 91
2018-04-28 06:00:00 7.7 5 Noroeste 8 Noroeste 0 -- -- 90
2018-04-28 05:00:00 7.9 6 Noroeste 9 Noroeste 0 -- -- 89
2018-04-28 04:00:00 8.8 5 Norte 16 Noroeste 0 -- -- 85
2018-04-28 03:00:00 9.9 10 Noroeste 21 Noroeste 0 -- -- 85
2018-04-28 02:00:00 11.2 13 Noroeste 19 Noroeste 0 -- -- 81
2018-04-28 01:00:00 12.2 11 Noroeste 25 Noroeste 0 -- -- 78
2018-04-28 00:00:00 13.6 12 Noroeste 20 Noroeste 0 -- -- 80